sensor_id;sensor_type;location;lat;lon;timestamp;P1;durP1;ratioP1;P2;durP2;ratioP2
4174;SDS011;2101;48.290;14.382;2023-12-20T05:00:22;40.97;;;3.00;;
4174;SDS011;2101;48.290;14.382;2023-12-20T05:03:36;37.10;;;2.20;;
4174;SDS011;2101;48.290;14.382;2023-12-20T05:06:05;38.50;;;2.30;;
4174;SDS011;2101;48.290;14.382;2023-12-20T05:08:31;36.97;;;2.43;;
4174;SDS011;2101;48.290;14.382;2023-12-20T05:11:18;39.00;;;2.80;;
4174;SDS011;2101;48.290;14.382;2023-12-20T05:14:20;41.20;;;3.50;;
4174;SDS011;2101;48.290;14.382;2023-12-20T05:16:58;43.93;;;3.93;;
4174;SDS011;2101;48.290;14.382;2023-12-20T05:19:58;46.83;;;4.80;;
4174;SDS011;2101;48.290;14.382;2023-12-20T05:22:31;43.83;;;4.80;;
4174;SDS011;2101;48.290;14.382;2023-12-20T05:25:34;56.23;;;5.73;;
4174;SDS011;2101;48.290;14.382;2023-12-20T05:28:21;49.00;;;6.80;;
4174;SDS011;2101;48.290;14.382;2023-12-20T05:31:03;50.50;;;7.37;;
4174;SDS011;2101;48.290;14.382;2023-12-20T05:33:31;56.93;;;7.67;;
4174;SDS011;2101;48.290;14.382;2023-12-20T05:36:08;61.20;;;7.73;;
4174;SDS011;2101;48.290;14.382;2023-12-20T05:41:44;58.80;;;10.07;;
4174;SDS011;2101;48.290;14.382;2023-12-20T05:47:14;61.87;;;11.87;;
4174;SDS011;2101;48.290;14.382;2023-12-20T05:49:50;72.87;;;12.00;;
4174;SDS011;2101;48.290;14.382;2023-12-20T05:52:47;80.00;;;11.80;;
4174;SDS011;2101;48.290;14.382;2023-12-20T05:55:43;62.33;;;10.13;;
4174;SDS011;2101;48.290;14.382;2023-12-20T05:58:39;61.47;;;8.87;;
4174;SDS011;2101;48.290;14.382;2023-12-20T11:14:52;36.53;;;1.50;;
4174;SDS011;2101;48.290;14.382;2023-12-20T11:20:54;38.10;;;1.83;;
4174;SDS011;2101;48.290;14.382;2023-12-20T11:23:41;37.53;;;1.50;;
4174;SDS011;2101;48.290;14.382;2023-12-20T11:26:26;36.57;;;1.50;;
4174;SDS011;2101;48.290;14.382;2023-12-20T11:32:54;44.00;;;1.80;;
4174;SDS011;2101;48.290;14.382;2023-12-20T11:36:14;42.50;;;1.53;;
4174;SDS011;2101;48.290;14.382;2023-12-20T11:39:36;37.80;;;1.53;;
4174;SDS011;2101;48.290;14.382;2023-12-20T11:42:50;38.60;;;1.87;;
4174;SDS011;2101;48.290;14.382;2023-12-20T11:45:39;38.57;;;1.50;;
4174;SDS011;2101;48.290;14.382;2023-12-20T11:48:38;38.27;;;1.93;;
4174;SDS011;2101;48.290;14.382;2023-12-20T11:52:03;37.27;;;1.60;;
4174;SDS011;2101;48.290;14.382;2023-12-20T11:55:16;216.03;;;7.70;;
4174;SDS011;2101;48.290;14.382;2023-12-20T11:58:21;33.60;;;1.27;;
4174;SDS011;2101;48.290;14.382;2023-12-20T13:06:28;42.10;;;2.67;;
4174;SDS011;2101;48.290;14.382;2023-12-20T13:09:37;37.60;;;2.03;;
4174;SDS011;2101;48.290;14.382;2023-12-20T13:12:59;49.13;;;2.17;;
4174;SDS011;2101;48.290;14.382;2023-12-20T13:16:04;39.30;;;2.30;;
4174;SDS011;2101;48.290;14.382;2023-12-20T13:18:34;37.80;;;2.10;;
4174;SDS011;2101;48.290;14.382;2023-12-20T13:21:21;37.63;;;1.67;;
4174;SDS011;2101;48.290;14.382;2023-12-20T13:23:48;37.60;;;2.20;;
4174;SDS011;2101;48.290;14.382;2023-12-20T13:26:29;37.50;;;2.03;;
4174;SDS011;2101;48.290;14.382;2023-12-20T13:29:14;42.03;;;2.87;;
4174;SDS011;2101;48.290;14.382;2023-12-20T13:31:41;37.90;;;2.10;;
4174;SDS011;2101;48.290;14.382;2023-12-20T13:34:13;37.57;;;2.07;;
4174;SDS011;2101;48.290;14.382;2023-12-20T13:43:26;37.70;;;2.00;;
4174;SDS011;2101;48.290;14.382;2023-12-20T13:49:15;37.60;;;1.90;;
4174;SDS011;2101;48.290;14.382;2023-12-20T13:51:54;38.30;;;2.00;;
4174;SDS011;2101;48.290;14.382;2023-12-20T13:54:41;37.80;;;2.00;;
4174;SDS011;2101;48.290;14.382;2023-12-20T13:57:08;38.13;;;2.03;;
4174;SDS011;2101;48.290;14.382;2023-12-20T13:59:54;37.57;;;1.80;;
4174;SDS011;2101;48.290;14.382;2023-12-20T14:02:41;39.10;;;2.10;;
4174;SDS011;2101;48.290;14.382;2023-12-20T14:05:11;37.17;;;1.70;;
4174;SDS011;2101;48.290;14.382;2023-12-20T14:08:10;39.20;;;2.33;;
4174;SDS011;2101;48.290;14.382;2023-12-20T14:13:42;43.10;;;2.40;;
4174;SDS011;2101;48.290;14.382;2023-12-20T14:16:40;41.40;;;2.57;;
4174;SDS011;2101;48.290;14.382;2023-12-20T14:19:26;40.33;;;2.13;;
4174;SDS011;2101;48.290;14.382;2023-12-20T14:22:17;57.37;;;5.43;;
4174;SDS011;2101;48.290;14.382;2023-12-20T19:17:43;44.07;;;2.60;;
4174;SDS011;2101;48.290;14.382;2023-12-20T19:20:54;38.87;;;1.87;;
4174;SDS011;2101;48.290;14.382;2023-12-20T19:24:05;41.97;;;2.97;;
4174;SDS011;2101;48.290;14.382;2023-12-20T19:26:53;42.03;;;2.50;;
4174;SDS011;2101;48.290;14.382;2023-12-20T19:30:01;40.47;;;2.50;;
4174;SDS011;2101;48.290;14.382;2023-12-20T19:35:38;42.67;;;3.60;;
4174;SDS011;2101;48.290;14.382;2023-12-20T19:38:24;45.27;;;3.97;;
4174;SDS011;2101;48.290;14.382;2023-12-20T19:41:11;43.63;;;3.07;;
4174;SDS011;2101;48.290;14.382;2023-12-20T19:44:16;46.77;;;3.53;;
4174;SDS011;2101;48.290;14.382;2023-12-20T19:50:36;48.13;;;3.50;;
4174;SDS011;2101;48.290;14.382;2023-12-20T19:53:51;42.10;;;2.90;;
4174;SDS011;2101;48.290;14.382;2023-12-20T19:56:39;40.70;;;2.90;;
4174;SDS011;2101;48.290;14.382;2023-12-20T19:59:09;40.33;;;2.80;;
4174;SDS011;2101;48.290;14.382;2023-12-20T20:01:58;41.40;;;3.47;;
4174;SDS011;2101;48.290;14.382;2023-12-20T20:04:44;45.13;;;2.93;;
4174;SDS011;2101;48.290;14.382;2023-12-20T20:07:32;37.70;;;1.60;;
4174;SDS011;2101;48.290;14.382;2023-12-20T20:10:00;47.10;;;1.63;;
4174;SDS011;2101;48.290;14.382;2023-12-20T20:12:56;38.00;;;1.83;;
4174;SDS011;2101;48.290;14.382;2023-12-20T20:15:48;38.50;;;2.20;;
4174;SDS011;2101;48.290;14.382;2023-12-20T20:23:57;38.40;;;2.17;;
4174;SDS011;2101;48.290;14.382;2023-12-20T20:26:47;40.93;;;2.70;;
4174;SDS011;2101;48.290;14.382;2023-12-20T20:30:13;83.70;;;13.03;;
4174;SDS011;2101;48.290;14.382;2023-12-20T20:33:22;38.70;;;2.47;;
4174;SDS011;2101;48.290;14.382;2023-12-20T20:36:02;37.17;;;2.10;;
4174;SDS011;2101;48.290;14.382;2023-12-20T20:39:03;39.20;;;2.17;;
4174;SDS011;2101;48.290;14.382;2023-12-20T20:42:13;39.80;;;2.77;;
4174;SDS011;2101;48.290;14.382;2023-12-20T20:45:10;43.47;;;3.07;;
4174;SDS011;2101;48.290;14.382;2023-12-20T20:47:37;47.87;;;2.30;;
4174;SDS011;2101;48.290;14.382;2023-12-20T20:50:04;42.07;;;2.90;;
4174;SDS011;2101;48.290;14.382;2023-12-20T20:52:30;45.20;;;2.40;;
4174;SDS011;2101;48.290;14.382;2023-12-20T20:55:07;37.90;;;2.10;;
4174;SDS011;2101;48.290;14.382;2023-12-20T20:58:08;36.17;;;1.27;;
4174;SDS011;2101;48.290;14.382;2023-12-20T21:00:57;35.30;;;1.20;;
4174;SDS011;2101;48.290;14.382;2023-12-20T21:03:47;35.03;;;1.10;;
4174;SDS011;2101;48.290;14.382;2023-12-20T21:06:40;36.03;;;1.10;;
4174;SDS011;2101;48.290;14.382;2023-12-20T21:09:28;35.60;;;1.10;;
4174;SDS011;2101;48.290;14.382;2023-12-20T21:11:58;35.40;;;1.10;;
4174;SDS011;2101;48.290;14.382;2023-12-20T21:15:08;36.73;;;1.23;;
4174;SDS011;2101;48.290;14.382;2023-12-20T21:17:39;36.43;;;1.20;;
4174;SDS011;2101;48.290;14.382;2023-12-20T21:20:38;36.23;;;1.37;;
4174;SDS011;2101;48.290;14.382;2023-12-20T21:23:27;36.63;;;1.10;;
4174;SDS011;2101;48.290;14.382;2023-12-20T21:25:54;43.07;;;3.10;;
4174;SDS011;2101;48.290;14.382;2023-12-20T21:28:20;35.60;;;1.23;;
4174;SDS011;2101;48.290;14.382;2023-12-20T21:30:54;38.20;;;1.20;;
4174;SDS011;2101;48.290;14.382;2023-12-20T21:33:21;37.77;;;1.77;;
4174;SDS011;2101;48.290;14.382;2023-12-20T21:36:28;37.20;;;1.73;;
4174;SDS011;2101;48.290;14.382;2023-12-20T21:39:04;38.97;;;1.40;;
4174;SDS011;2101;48.290;14.382;2023-12-20T21:41:31;37.87;;;1.30;;
4174;SDS011;2101;48.290;14.382;2023-12-20T21:44:13;36.37;;;1.27;;
4174;SDS011;2101;48.290;14.382;2023-12-20T21:47:01;35.90;;;1.40;;
4174;SDS011;2101;48.290;14.382;2023-12-20T21:49:41;41.60;;;1.60;;
4174;SDS011;2101;48.290;14.382;2023-12-20T21:56:02;34.80;;;1.63;;
